AVA8558 SKBO-SKCG
Flight info
| Callsign | AVA8558 |
|---|---|
| Flight time | 0h 59m |
| Altitude | 36000 |
| Route | OSUSU4R GIKPU UQ120 DIBAM UW10 UGREB UGREB3B |
| Aircraft | A320/M-SDE3FGHIRWY/LB1 |
Departure
| Time | 2026-05-03 22:51 |
|---|---|
| Airport | El Dorado International Airport (SKBO) |
Arrival
| Time | 2026-05-03 23:50 |
|---|---|
| Airport | Rafael Nuñez International Airport (SKCG) |
| Time | Latitude | Longitude | Altitude | Speed | Heading |
|---|---|---|---|---|---|
| 2026-05-03 22:29 | 4.69764 | -74.14505 | 8373 ft | 0 kts | 39° |
| 2026-05-03 22:39 | 4.69753 | -74.14514 | 8370 ft | 4 kts | 34° |
| 2026-05-03 22:39 | 4.69741 | -74.14524 | 8373 ft | 4 kts | 314° |
| 2026-05-03 22:39 | 4.69745 | -74.14532 | 8373 ft | 0 kts | 308° |
| 2026-05-03 22:43 | 4.69748 | -74.14565 | 8372 ft | 10 kts | 274° |
| 2026-05-03 22:43 | 4.69805 | -74.14655 | 8373 ft | 18 kts | 308° |
| 2026-05-03 22:43 | 4.69882 | -74.14756 | 8373 ft | 18 kts | 307° |
| 2026-05-03 22:43 | 4.69987 | -74.14746 | 8372 ft | 17 kts | 39° |
| 2026-05-03 22:44 | 4.70083 | -74.14672 | 8372 ft | 18 kts | 37° |
| 2026-05-03 22:44 | 4.70185 | -74.14595 | 8373 ft | 19 kts | 36° |
| 2026-05-03 22:44 | 4.70291 | -74.14515 | 8372 ft | 19 kts | 37° |
| 2026-05-03 22:44 | 4.70400 | -74.14432 | 8373 ft | 20 kts | 38° |
| 2026-05-03 22:45 | 4.70496 | -74.14424 | 8372 ft | 15 kts | 310° |
| 2026-05-03 22:45 | 4.70564 | -74.14511 | 8373 ft | 16 kts | 308° |
| 2026-05-03 22:45 | 4.70632 | -74.14602 | 8371 ft | 17 kts | 307° |
| 2026-05-03 22:45 | 4.70703 | -74.14696 | 8373 ft | 17 kts | 307° |
| 2026-05-03 22:46 | 4.70777 | -74.14795 | 8373 ft | 18 kts | 307° |
| 2026-05-03 22:46 | 4.70855 | -74.14896 | 8373 ft | 19 kts | 307° |
| 2026-05-03 22:46 | 4.70934 | -74.15002 | 8373 ft | 19 kts | 307° |
| 2026-05-03 22:46 | 4.71016 | -74.15110 | 8373 ft | 20 kts | 307° |
| 2026-05-03 22:47 | 4.71098 | -74.15219 | 8371 ft | 20 kts | 306° |
| 2026-05-03 22:47 | 4.71200 | -74.15303 | 8371 ft | 19 kts | 357° |
| 2026-05-03 22:47 | 4.71238 | -74.15291 | 8373 ft | 0 kts | 40° |
| 2026-05-03 22:48 | 4.71241 | -74.15288 | 8373 ft | 4 kts | 40° |
| 2026-05-03 22:49 | 4.71299 | -74.15231 | 8372 ft | 16 kts | 50° |
| 2026-05-03 22:49 | 4.71294 | -74.15150 | 8371 ft | 0 kts | 127° |
| 2026-05-03 22:49 | 4.71288 | -74.15142 | 8371 ft | 8 kts | 127° |
| 2026-05-03 22:50 | 4.71107 | -74.14904 | 8369 ft | 80 kts | 127° |
| 2026-05-03 22:50 | 4.70635 | -74.14280 | 8372 ft | 142 kts | 127° |
| 2026-05-03 22:50 | 4.69939 | -74.13360 | 8395 ft | 189 kts | 127° |
| 2026-05-03 22:50 | 4.69109 | -74.12256 | 8885 ft | 198 kts | 124° |
| 2026-05-03 22:51 | 4.68614 | -74.10997 | 9454 ft | 199 kts | 86° |
| 2026-05-03 22:51 | 4.69090 | -74.09754 | 10018 ft | 193 kts | 40° |
| 2026-05-03 22:51 | 4.70256 | -74.09157 | 10246 ft | 193 kts | 12° |
| 2026-05-03 22:51 | 4.71591 | -74.08779 | 10382 ft | 207 kts | 14° |
| 2026-05-03 22:52 | 4.73023 | -74.08339 | 10510 ft | 223 kts | 16° |
| 2026-05-03 22:52 | 4.74549 | -74.07851 | 10640 ft | 237 kts | 16° |
| 2026-05-03 22:52 | 4.76152 | -74.07329 | 10921 ft | 245 kts | 17° |
| 2026-05-03 22:52 | 4.77774 | -74.06797 | 11586 ft | 246 kts | 18° |
| 2026-05-03 22:53 | 4.79413 | -74.06252 | 12176 ft | 256 kts | 19° |
| 2026-05-03 22:53 | 4.81180 | -74.05654 | 12434 ft | 280 kts | 19° |
| 2026-05-03 22:53 | 4.83105 | -74.04999 | 12653 ft | 304 kts | 20° |
| 2026-05-03 22:53 | 4.85193 | -74.04291 | 12844 ft | 329 kts | 20° |
| 2026-05-03 22:54 | 4.87445 | -74.03528 | 12991 ft | 354 kts | 20° |
| 2026-05-03 22:54 | 4.89822 | -74.02727 | 13401 ft | 365 kts | 19° |
| 2026-05-03 22:54 | 4.92260 | -74.01905 | 14011 ft | 372 kts | 20° |
| 2026-05-03 22:54 | 4.94695 | -74.01082 | 14654 ft | 376 kts | 20° |
| 2026-05-03 22:55 | 4.97187 | -74.00236 | 15245 ft | 380 kts | 20° |
| 2026-05-03 22:55 | 4.99738 | -73.99370 | 15846 ft | 384 kts | 20° |
| 2026-05-03 22:55 | 5.02275 | -73.98522 | 16427 ft | 387 kts | 19° |
| 2026-05-03 22:55 | 5.04845 | -73.97778 | 16968 ft | 391 kts | 17° |
| 2026-05-03 22:56 | 5.07492 | -73.97107 | 17516 ft | 395 kts | 15° |
| 2026-05-03 22:56 | 5.10181 | -73.96475 | 18059 ft | 399 kts | 15° |
| 2026-05-03 22:56 | 5.12894 | -73.95851 | 18592 ft | 402 kts | 15° |
| 2026-05-03 22:56 | 5.15635 | -73.95209 | 19097 ft | 405 kts | 15° |
| 2026-05-03 22:57 | 5.18389 | -73.94546 | 19590 ft | 409 kts | 15° |
| 2026-05-03 22:57 | 5.21168 | -73.93859 | 20112 ft | 413 kts | 16° |
| 2026-05-03 22:57 | 5.23963 | -73.93159 | 20586 ft | 416 kts | 16° |
| 2026-05-03 22:57 | 5.26782 | -73.92452 | 21032 ft | 419 kts | 16° |
| 2026-05-03 22:58 | 5.29616 | -73.91741 | 21482 ft | 422 kts | 15° |
| 2026-05-03 22:58 | 5.32478 | -73.91026 | 21919 ft | 425 kts | 15° |
| 2026-05-03 22:58 | 5.35355 | -73.90307 | 22329 ft | 428 kts | 15° |
| 2026-05-03 22:58 | 5.38257 | -73.89583 | 22720 ft | 431 kts | 15° |
| 2026-05-03 22:59 | 5.41169 | -73.88857 | 23071 ft | 433 kts | 15° |
| 2026-05-03 22:59 | 5.44109 | -73.88125 | 23434 ft | 436 kts | 15° |
| 2026-05-03 22:59 | 5.47072 | -73.87388 | 23785 ft | 438 kts | 15° |
| 2026-05-03 22:59 | 5.50002 | -73.86659 | 24127 ft | 441 kts | 15° |
| 2026-05-03 23:00 | 5.52991 | -73.85916 | 24467 ft | 444 kts | 15° |
| 2026-05-03 23:00 | 5.56002 | -73.85207 | 24793 ft | 446 kts | 13° |
| 2026-05-03 23:00 | 5.59047 | -73.84556 | 25103 ft | 448 kts | 12° |
| 2026-05-03 23:00 | 5.62114 | -73.83943 | 25408 ft | 451 kts | 12° |
| 2026-05-03 23:01 | 5.65205 | -73.83344 | 25710 ft | 453 kts | 12° |
| 2026-05-03 23:01 | 5.68310 | -73.82739 | 26001 ft | 455 kts | 12° |
| 2026-05-03 23:01 | 5.71422 | -73.82121 | 26286 ft | 456 kts | 12° |
| 2026-05-03 23:01 | 5.74541 | -73.81490 | 26553 ft | 459 kts | 12° |
| 2026-05-03 23:02 | 5.77675 | -73.80845 | 26823 ft | 460 kts | 12° |
| 2026-05-03 23:02 | 5.80816 | -73.80192 | 27079 ft | 462 kts | 12° |
| 2026-05-03 23:02 | 5.83964 | -73.79534 | 27327 ft | 464 kts | 12° |
| 2026-05-03 23:02 | 5.87097 | -73.78881 | 27566 ft | 466 kts | 12° |
| 2026-05-03 23:03 | 5.90276 | -73.78224 | 27807 ft | 468 kts | 12° |
| 2026-05-03 23:03 | 5.93466 | -73.77567 | 28035 ft | 469 kts | 12° |
| 2026-05-03 23:03 | 5.96675 | -73.76907 | 28253 ft | 471 kts | 12° |
| 2026-05-03 23:03 | 5.99886 | -73.76245 | 28463 ft | 473 kts | 12° |
| 2026-05-03 23:04 | 6.03119 | -73.75578 | 28672 ft | 475 kts | 12° |
| 2026-05-03 23:04 | 6.06359 | -73.74909 | 28871 ft | 476 kts | 12° |
| 2026-05-03 23:04 | 6.09609 | -73.74237 | 29063 ft | 478 kts | 12° |
| 2026-05-03 23:04 | 6.12866 | -73.73565 | 29236 ft | 479 kts | 12° |
| 2026-05-03 23:05 | 6.16136 | -73.72892 | 29414 ft | 480 kts | 12° |
| 2026-05-03 23:05 | 6.19412 | -73.72223 | 29576 ft | 481 kts | 12° |
| 2026-05-03 23:05 | 6.22695 | -73.71550 | 29788 ft | 481 kts | 12° |
| 2026-05-03 23:05 | 6.25974 | -73.70873 | 30048 ft | 480 kts | 12° |
| 2026-05-03 23:06 | 6.29245 | -73.70198 | 30286 ft | 480 kts | 12° |
| 2026-05-03 23:06 | 6.32511 | -73.69524 | 30529 ft | 479 kts | 12° |
| 2026-05-03 23:06 | 6.35776 | -73.68850 | 30776 ft | 478 kts | 12° |
| 2026-05-03 23:06 | 6.39039 | -73.68177 | 31035 ft | 477 kts | 12° |
| 2026-05-03 23:07 | 6.42288 | -73.67508 | 31291 ft | 476 kts | 12° |
| 2026-05-03 23:07 | 6.45527 | -73.66842 | 31559 ft | 475 kts | 12° |
| 2026-05-03 23:07 | 6.48762 | -73.66175 | 31823 ft | 474 kts | 12° |
| 2026-05-03 23:07 | 6.51997 | -73.65510 | 32078 ft | 473 kts | 12° |
| 2026-05-03 23:08 | 6.55220 | -73.64848 | 32338 ft | 473 kts | 12° |
| 2026-05-03 23:08 | 6.58441 | -73.64186 | 32595 ft | 472 kts | 12° |
| 2026-05-03 23:08 | 6.61653 | -73.63525 | 32863 ft | 471 kts | 12° |
| 2026-05-03 23:08 | 6.64861 | -73.62862 | 33122 ft | 470 kts | 12° |
| 2026-05-03 23:09 | 6.68066 | -73.62199 | 33382 ft | 469 kts | 12° |
| 2026-05-03 23:09 | 6.71259 | -73.61539 | 33651 ft | 468 kts | 12° |
| 2026-05-03 23:09 | 6.74446 | -73.60880 | 33924 ft | 467 kts | 12° |
| 2026-05-03 23:09 | 6.77587 | -73.60230 | 34184 ft | 466 kts | 12° |
| 2026-05-03 23:10 | 6.80754 | -73.59574 | 34424 ft | 466 kts | 12° |
| 2026-05-03 23:10 | 6.83940 | -73.58918 | 34662 ft | 465 kts | 12° |
| 2026-05-03 23:10 | 6.87103 | -73.58266 | 34891 ft | 464 kts | 12° |
| 2026-05-03 23:10 | 6.90257 | -73.57613 | 35114 ft | 463 kts | 12° |
| 2026-05-03 23:11 | 6.93425 | -73.56958 | 35337 ft | 463 kts | 12° |
| 2026-05-03 23:11 | 6.96576 | -73.56352 | 35552 ft | 462 kts | 8° |
| 2026-05-03 23:11 | 6.99774 | -73.56148 | 35761 ft | 462 kts | 359° |
| 2026-05-03 23:12 | 7.06215 | -73.56444 | 35868 ft | 463 kts | 358° |
| 2026-05-03 23:12 | 7.12654 | -73.56755 | 35882 ft | 463 kts | 358° |
| 2026-05-03 23:13 | 7.18997 | -73.57066 | 35873 ft | 462 kts | 358° |
| 2026-05-03 23:13 | 7.25382 | -73.57195 | 35886 ft | 458 kts | 3° |
| 2026-05-03 23:14 | 7.31770 | -73.57350 | 35897 ft | 461 kts | 356° |
| 2026-05-03 23:14 | 7.38257 | -73.57917 | 35914 ft | 462 kts | 355° |
| 2026-05-03 23:15 | 7.44670 | -73.58368 | 35914 ft | 463 kts | 357° |
| 2026-05-03 23:15 | 7.51103 | -73.58661 | 35921 ft | 463 kts | 358° |
| 2026-05-03 23:16 | 7.57539 | -73.58917 | 35926 ft | 463 kts | 358° |
| 2026-05-03 23:16 | 7.63972 | -73.59203 | 35926 ft | 462 kts | 358° |
| 2026-05-03 23:17 | 7.70400 | -73.59514 | 35927 ft | 462 kts | 357° |
| 2026-05-03 23:17 | 7.76818 | -73.59833 | 35931 ft | 462 kts | 357° |
| 2026-05-03 23:18 | 7.83242 | -73.60147 | 35931 ft | 462 kts | 358° |
| 2026-05-03 23:18 | 7.89619 | -73.60448 | 35925 ft | 461 kts | 358° |
| 2026-05-03 23:19 | 7.96028 | -73.60750 | 35921 ft | 461 kts | 358° |
| 2026-05-03 23:19 | 8.02442 | -73.61051 | 35916 ft | 461 kts | 357° |
| 2026-05-03 23:20 | 8.08859 | -73.61362 | 35908 ft | 461 kts | 357° |
| 2026-05-03 23:20 | 8.15239 | -73.61936 | 35909 ft | 461 kts | 347° |
| 2026-05-03 23:20 | 8.18291 | -73.62917 | 35903 ft | 461 kts | 336° |
| 2026-05-03 23:21 | 8.21118 | -73.64439 | 35897 ft | 461 kts | 326° |
| 2026-05-03 23:21 | 8.25786 | -73.68798 | 35887 ft | 462 kts | 312° |
| 2026-05-03 23:22 | 8.31535 | -73.75263 | 35871 ft | 463 kts | 312° |
| 2026-05-03 23:22 | 8.35852 | -73.80095 | 35881 ft | 463 kts | 312° |
| 2026-05-03 23:23 | 8.40140 | -73.84892 | 35886 ft | 463 kts | 312° |
| 2026-05-03 23:23 | 8.44448 | -73.89734 | 35893 ft | 463 kts | 312° |
| 2026-05-03 23:24 | 8.48754 | -73.94576 | 35897 ft | 463 kts | 312° |
| 2026-05-03 23:24 | 8.53066 | -73.99418 | 35898 ft | 464 kts | 312° |
| 2026-05-03 23:25 | 8.57379 | -74.04263 | 35899 ft | 464 kts | 312° |
| 2026-05-03 23:25 | 8.61686 | -74.09110 | 35893 ft | 464 kts | 312° |
| 2026-05-03 23:26 | 8.66003 | -74.13962 | 35883 ft | 464 kts | 312° |
| 2026-05-03 23:26 | 8.70457 | -74.18666 | 35868 ft | 463 kts | 320° |
| 2026-05-03 23:27 | 8.75390 | -74.22856 | 35867 ft | 463 kts | 320° |
| 2026-05-03 23:27 | 8.80279 | -74.27028 | 35882 ft | 463 kts | 320° |
| 2026-05-03 23:28 | 8.85204 | -74.31221 | 35884 ft | 463 kts | 320° |
| 2026-05-03 23:28 | 8.90133 | -74.35411 | 35881 ft | 463 kts | 320° |
| 2026-05-03 23:29 | 8.95067 | -74.39603 | 35867 ft | 463 kts | 320° |
| 2026-05-03 23:29 | 8.99983 | -74.43797 | 35880 ft | 462 kts | 320° |
| 2026-05-03 23:30 | 9.04904 | -74.47991 | 35872 ft | 462 kts | 320° |
| 2026-05-03 23:30 | 9.09822 | -74.52181 | 35866 ft | 462 kts | 320° |
| 2026-05-03 23:31 | 9.14699 | -74.56340 | 35582 ft | 461 kts | 320° |
| 2026-05-03 23:31 | 9.17174 | -74.58451 | 34399 ft | 469 kts | 320° |
| 2026-05-03 23:31 | 9.19672 | -74.60585 | 32926 ft | 470 kts | 320° |
| 2026-05-03 23:32 | 9.22182 | -74.62731 | 31095 ft | 476 kts | 319° |
| 2026-05-03 23:32 | 9.24720 | -74.64906 | 29266 ft | 480 kts | 319° |
| 2026-05-03 23:32 | 9.27243 | -74.67064 | 28207 ft | 468 kts | 319° |
| 2026-05-03 23:32 | 9.29708 | -74.69166 | 27198 ft | 457 kts | 319° |
| 2026-05-03 23:33 | 9.32086 | -74.71193 | 26571 ft | 440 kts | 319° |
| 2026-05-03 23:33 | 9.34424 | -74.73188 | 25833 ft | 438 kts | 319° |
| 2026-05-03 23:33 | 9.36743 | -74.75167 | 25110 ft | 435 kts | 319° |
| 2026-05-03 23:33 | 9.39053 | -74.77139 | 24409 ft | 434 kts | 319° |
| 2026-05-03 23:34 | 9.41357 | -74.79109 | 23699 ft | 433 kts | 319° |
| 2026-05-03 23:34 | 9.43657 | -74.81078 | 23007 ft | 432 kts | 319° |
| 2026-05-03 23:34 | 9.45944 | -74.83037 | 22339 ft | 430 kts | 319° |
| 2026-05-03 23:34 | 9.48230 | -74.84993 | 21679 ft | 429 kts | 319° |
| 2026-05-03 23:35 | 9.50504 | -74.86935 | 21049 ft | 427 kts | 319° |
| 2026-05-03 23:35 | 9.52771 | -74.88870 | 20440 ft | 425 kts | 319° |
| 2026-05-03 23:35 | 9.55028 | -74.90799 | 19850 ft | 423 kts | 320° |
| 2026-05-03 23:35 | 9.57268 | -74.92714 | 19286 ft | 420 kts | 320° |
| 2026-05-03 23:36 | 9.59496 | -74.94620 | 18726 ft | 417 kts | 320° |
| 2026-05-03 23:36 | 9.61673 | -74.96485 | 18203 ft | 414 kts | 320° |
| 2026-05-03 23:36 | 9.63862 | -74.98359 | 17624 ft | 412 kts | 320° |
| 2026-05-03 23:36 | 9.66071 | -75.00253 | 16783 ft | 417 kts | 320° |
| 2026-05-03 23:37 | 9.68274 | -75.02142 | 16259 ft | 413 kts | 320° |
| 2026-05-03 23:37 | 9.70460 | -75.04016 | 15702 ft | 409 kts | 320° |
| 2026-05-03 23:37 | 9.72624 | -75.05870 | 15123 ft | 406 kts | 320° |
| 2026-05-03 23:37 | 9.74776 | -75.07716 | 14549 ft | 404 kts | 320° |
| 2026-05-03 23:38 | 9.76910 | -75.09547 | 13954 ft | 401 kts | 320° |
| 2026-05-03 23:38 | 9.79034 | -75.11370 | 13362 ft | 398 kts | 320° |
| 2026-05-03 23:38 | 9.81140 | -75.13174 | 12737 ft | 395 kts | 321° |
| 2026-05-03 23:38 | 9.83230 | -75.14969 | 12124 ft | 392 kts | 321° |
| 2026-05-03 23:39 | 9.85303 | -75.16752 | 11496 ft | 389 kts | 321° |
| 2026-05-03 23:39 | 9.87359 | -75.18518 | 10861 ft | 386 kts | 321° |
| 2026-05-03 23:39 | 9.89401 | -75.20264 | 10308 ft | 379 kts | 321° |
| 2026-05-03 23:39 | 9.91371 | -75.21945 | 10173 ft | 362 kts | 321° |
| 2026-05-03 23:40 | 9.93253 | -75.23556 | 10044 ft | 346 kts | 321° |
| 2026-05-03 23:40 | 9.95054 | -75.25102 | 9914 ft | 332 kts | 321° |
| 2026-05-03 23:40 | 9.96777 | -75.26585 | 9795 ft | 319 kts | 320° |
| 2026-05-03 23:40 | 9.98433 | -75.28010 | 9654 ft | 307 kts | 320° |
| 2026-05-03 23:41 | 10.00042 | -75.29397 | 9378 ft | 301 kts | 320° |
| 2026-05-03 23:41 | 10.01630 | -75.30762 | 9083 ft | 300 kts | 320° |
| 2026-05-03 23:41 | 10.03230 | -75.32136 | 8638 ft | 300 kts | 321° |
| 2026-05-03 23:41 | 10.04813 | -75.33496 | 8279 ft | 296 kts | 321° |
| 2026-05-03 23:42 | 10.06363 | -75.34827 | 7861 ft | 295 kts | 321° |
| 2026-05-03 23:42 | 10.07924 | -75.36165 | 7459 ft | 293 kts | 321° |
| 2026-05-03 23:42 | 10.09471 | -75.37492 | 7056 ft | 290 kts | 321° |
| 2026-05-03 23:42 | 10.11001 | -75.38810 | 6657 ft | 287 kts | 320° |
| 2026-05-03 23:43 | 10.12516 | -75.40116 | 6238 ft | 285 kts | 321° |
| 2026-05-03 23:43 | 10.14020 | -75.41411 | 5834 ft | 282 kts | 321° |
| 2026-05-03 23:43 | 10.15513 | -75.42694 | 5412 ft | 281 kts | 320° |
| 2026-05-03 23:43 | 10.16989 | -75.43955 | 4834 ft | 275 kts | 321° |
| 2026-05-03 23:44 | 10.18441 | -75.45203 | 4102 ft | 273 kts | 320° |
| 2026-05-03 23:44 | 10.19876 | -75.46443 | 3552 ft | 269 kts | 320° |
| 2026-05-03 23:44 | 10.21278 | -75.47652 | 3343 ft | 258 kts | 320° |
| 2026-05-03 23:44 | 10.22615 | -75.48801 | 3216 ft | 245 kts | 320° |
| 2026-05-03 23:45 | 10.23880 | -75.49888 | 3109 ft | 232 kts | 320° |
| 2026-05-03 23:45 | 10.25081 | -75.50918 | 3012 ft | 220 kts | 320° |
| 2026-05-03 23:45 | 10.26343 | -75.51711 | 2914 ft | 209 kts | 339° |
| 2026-05-03 23:45 | 10.27752 | -75.51968 | 2670 ft | 207 kts | 359° |
| 2026-05-03 23:46 | 10.29176 | -75.51913 | 2573 ft | 204 kts | 0° |
| 2026-05-03 23:46 | 10.30563 | -75.51852 | 2451 ft | 195 kts | 0° |
| 2026-05-03 23:46 | 10.31884 | -75.51795 | 2189 ft | 184 kts | 1° |
| 2026-05-03 23:46 | 10.33118 | -75.51747 | 1956 ft | 172 kts | 1° |
| 2026-05-03 23:47 | 10.34280 | -75.51699 | 1732 ft | 162 kts | 2° |
| 2026-05-03 23:47 | 10.35371 | -75.51654 | 1554 ft | 151 kts | 3° |
| 2026-05-03 23:47 | 10.36416 | -75.51611 | 1352 ft | 148 kts | 4° |
| 2026-05-03 23:47 | 10.37420 | -75.51570 | 1156 ft | 141 kts | 3° |
| 2026-05-03 23:48 | 10.38385 | -75.51530 | 966 ft | 138 kts | 2° |
| 2026-05-03 23:48 | 10.39336 | -75.51491 | 784 ft | 136 kts | 2° |
| 2026-05-03 23:48 | 10.40282 | -75.51453 | 604 ft | 136 kts | 3° |
| 2026-05-03 23:48 | 10.41222 | -75.51414 | 427 ft | 134 kts | 3° |
| 2026-05-03 23:49 | 10.42165 | -75.51376 | 232 ft | 136 kts | 2° |
| 2026-05-03 23:49 | 10.43091 | -75.51335 | 88 ft | 135 kts | 2° |
| 2026-05-03 23:49 | 10.43989 | -75.51298 | 14 ft | 116 kts | 0° |
| 2026-05-03 23:49 | 10.44631 | -75.51276 | 17 ft | 68 kts | 2° |
| 2026-05-03 23:50 | 10.45023 | -75.51258 | 17 ft | 53 kts | 2° |
| 2026-05-03 23:50 | 10.45233 | -75.51250 | 16 ft | 29 kts | 4° |
| 2026-05-03 23:50 | 10.45319 | -75.51232 | 16 ft | 8 kts | 308° |
| 2026-05-03 23:50 | 10.45304 | -75.51269 | 16 ft | 5 kts | 191° |
| 2026-05-03 23:51 | 10.45270 | -75.51261 | 16 ft | 5 kts | 167° |
| 2026-05-03 23:51 | 10.45193 | -75.51251 | 16 ft | 13 kts | 178° |
| 2026-05-03 23:51 | 10.45108 | -75.51251 | 17 ft | 11 kts | 181° |
| 2026-05-03 23:51 | 10.45034 | -75.51254 | 17 ft | 10 kts | 184° |
| 2026-05-03 23:52 | 10.44948 | -75.51262 | 18 ft | 16 kts | 185° |
| 2026-05-03 23:52 | 10.44814 | -75.51267 | 18 ft | 22 kts | 181° |
| 2026-05-03 23:52 | 10.44668 | -75.51282 | 16 ft | 20 kts | 212° |
| 2026-05-03 23:52 | 10.44644 | -75.51349 | 15 ft | 0 kts | 268° |
| 2026-05-03 23:53 | 10.44643 | -75.51355 | 15 ft | 1 kts | 265° |
| 2026-05-03 23:53 | 10.44638 | -75.51367 | 15 ft | 5 kts | 248° |
| 2026-05-03 23:53 | 10.44622 | -75.51437 | 14 ft | 11 kts | 250° |
| 2026-05-03 23:53 | 10.44563 | -75.51467 | 15 ft | 9 kts | 201° |
| 2026-05-03 23:54 | 10.44527 | -75.51509 | 14 ft | 6 kts | 242° |
| 2026-05-03 23:54 | 10.44524 | -75.51524 | 14 ft | 3 kts | 265° |
| 2026-05-03 23:54 | 10.44523 | -75.51549 | 14 ft | 3 kts | 269° |
| 2026-05-03 23:54 | 10.44523 | -75.51566 | 14 ft | 0 kts | 270° |